createdAt,value
2019-01-23T00:02:12.914Z,27.90
2019-01-23T00:04:44.216Z,27.53
2019-01-23T00:07:15.432Z,26.70
2019-01-23T00:09:46.787Z,26.37
2019-01-23T00:12:18.106Z,29.87
2019-01-23T00:14:49.382Z,26.73
2019-01-23T00:17:20.701Z,28.33
2019-01-23T00:19:51.928Z,28.20
2019-01-23T00:22:23.210Z,30.63
2019-01-23T00:24:54.482Z,26.47
2019-01-23T00:27:25.829Z,26.47
2019-01-23T00:29:57.111Z,28.07
2019-01-23T00:32:28.569Z,27.77
2019-01-23T00:34:59.771Z,29.10
2019-01-23T00:37:31.031Z,29.30
2019-01-23T00:40:02.314Z,27.30
2019-01-23T00:42:33.540Z,28.40
2019-01-23T00:45:05.559Z,27.47
2019-01-23T00:47:36.976Z,26.70
2019-01-23T00:50:08.989Z,28.10
2019-01-23T00:52:40.244Z,26.43
2019-01-23T00:55:12.703Z,26.90
2019-01-23T00:57:43.994Z,27.13
2019-01-23T01:00:23.289Z,27.53
2019-01-23T01:02:54.800Z,28.83
2019-01-23T01:05:25.944Z,28.23
2019-01-23T01:07:57.153Z,28.00
2019-01-23T01:10:28.592Z,27.17
2019-01-23T01:12:59.908Z,26.40
2019-01-23T01:15:31.131Z,25.57
2019-01-23T01:18:02.381Z,28.30
2019-01-23T01:20:33.623Z,28.73
2019-01-23T01:23:05.013Z,28.53
2019-01-23T01:25:36.360Z,28.13
2019-01-23T01:28:07.653Z,26.97
2019-01-23T01:30:38.968Z,26.97
2019-01-23T01:33:10.238Z,27.97
2019-01-23T01:35:41.553Z,29.90
2019-01-23T01:38:12.827Z,27.13
2019-01-23T01:40:44.128Z,26.70
2019-01-23T01:43:15.375Z,26.57
2019-01-23T01:45:46.592Z,29.27
2019-01-23T01:48:17.874Z,28.63
2019-01-23T01:50:49.191Z,26.90
2019-01-23T01:53:20.597Z,27.80
2019-01-23T01:55:51.914Z,28.03
2019-01-23T01:58:23.259Z,27.73
2019-01-23T02:00:54.627Z,27.20
2019-01-23T02:03:25.958Z,28.83
2019-01-23T02:05:57.255Z,27.50
2019-01-23T02:08:28.516Z,26.77
2019-01-23T02:10:59.894Z,26.07
2019-01-23T02:13:31.107Z,28.83
2019-01-23T02:16:02.372Z,27.63
2019-01-23T02:18:33.697Z,29.37
2019-01-23T02:21:04.955Z,28.43
2019-01-23T02:23:36.125Z,28.10
2019-01-23T02:26:07.360Z,27.33
2019-01-23T02:28:38.799Z,28.90
2019-01-23T02:31:10.354Z,28.20
2019-01-23T02:33:41.539Z,24.90
2019-01-23T02:36:12.744Z,26.43
2019-01-23T02:38:44.007Z,25.77
2019-01-23T02:41:15.336Z,25.37
2019-01-23T02:43:46.652Z,26.37
2019-01-23T02:46:17.861Z,25.90
2019-01-23T02:48:49.165Z,25.40
2019-01-23T02:51:20.476Z,26.93
2019-01-23T02:53:51.773Z,25.77
2019-01-23T02:56:23.101Z,26.53
2019-01-23T02:58:54.333Z,24.53
2019-01-23T03:01:25.616Z,26.23
2019-01-23T03:03:56.920Z,25.93
2019-01-23T03:06:28.222Z,27.50
2019-01-23T03:08:59.568Z,28.37
2019-01-23T03:11:31.875Z,25.67
2019-01-23T03:14:03.131Z,29.13
2019-01-23T03:16:34.437Z,28.03
2019-01-23T03:19:05.921Z,25.87
2019-01-23T03:21:37.320Z,27.27
2019-01-23T03:24:08.865Z,25.43
2019-01-23T03:26:40.178Z,28.07
2019-01-23T03:29:11.447Z,28.30
2019-01-23T03:31:42.783Z,27.33
2019-01-23T03:34:13.987Z,29.17
2019-01-23T03:36:45.305Z,26.70
2019-01-23T03:39:16.538Z,26.03
2019-01-23T03:41:47.775Z,26.40
2019-01-23T03:44:19.317Z,27.17
2019-01-23T03:46:50.632Z,27.17
2019-01-23T03:49:21.892Z,26.77
2019-01-23T03:51:54.155Z,27.50
2019-01-23T03:54:25.461Z,26.73
2019-01-23T03:56:56.814Z,27.00
2019-01-23T03:59:32.178Z,26.93
2019-01-23T04:02:01.453Z,29.47
2019-01-23T04:04:32.707Z,29.47
2019-01-23T04:07:04.113Z,27.27
2019-01-23T04:09:35.408Z,28.83
2019-01-23T04:12:06.604Z,26.03
2019-01-23T04:14:37.976Z,27.07
2019-01-23T04:17:09.202Z,27.70
2019-01-23T04:19:40.382Z,26.00
2019-01-23T04:22:11.612Z,27.00
2019-01-23T04:24:42.951Z,27.43
2019-01-23T04:27:14.174Z,27.90
2019-01-23T04:29:45.459Z,25.60
2019-01-23T04:32:16.753Z,28.83
2019-01-23T04:34:48.000Z,29.83
2019-01-23T04:37:19.227Z,29.10
2019-01-23T04:39:50.538Z,27.53
2019-01-23T04:42:21.780Z,28.67
2019-01-23T04:44:53.143Z,29.33
2019-01-23T04:47:24.418Z,30.03
2019-01-23T04:49:55.820Z,31.00
2019-01-23T04:52:51.838Z,31.33
2019-01-23T04:55:23.104Z,30.40
2019-01-23T04:57:54.410Z,30.20
2019-01-23T05:00:27.051Z,31.03
2019-01-23T05:02:58.542Z,28.90
2019-01-23T05:05:29.826Z,29.73
2019-01-23T05:08:01.079Z,31.33
2019-01-23T05:10:32.341Z,29.67
2019-01-23T05:13:03.668Z,30.63
2019-01-23T05:15:34.942Z,28.77
2019-01-23T05:18:06.184Z,31.47
2019-01-23T05:20:37.552Z,31.50
2019-01-23T05:23:08.816Z,30.27
2019-01-23T05:25:40.366Z,32.63
2019-01-23T05:28:11.626Z,32.00
2019-01-23T05:30:42.849Z,29.33
2019-01-23T05:33:14.121Z,28.43
2019-01-23T05:35:45.470Z,31.43
2019-01-23T05:38:16.721Z,31.50
2019-01-23T05:40:47.955Z,30.63
2019-01-23T05:43:19.223Z,31.10
2019-01-23T05:45:50.491Z,30.93
2019-01-23T05:48:21.720Z,31.43
2019-01-23T05:50:52.935Z,30.27
2019-01-23T05:53:24.148Z,31.03
2019-01-23T05:55:55.341Z,32.90
2019-01-23T05:58:26.639Z,32.43
2019-01-23T06:00:57.862Z,31.90
2019-01-23T06:03:29.274Z,30.87
2019-01-23T06:06:00.552Z,31.53
2019-01-23T06:08:31.847Z,31.33
2019-01-23T06:11:03.138Z,33.57
2019-01-23T06:13:34.383Z,32.37
2019-01-23T06:16:05.549Z,30.83
2019-01-23T06:18:36.899Z,32.63
2019-01-23T06:21:08.137Z,33.13
2019-01-23T06:23:39.365Z,34.27
2019-01-23T06:26:10.629Z,32.53
2019-01-23T06:28:41.816Z,33.23
2019-01-23T06:31:13.075Z,33.87
2019-01-23T06:33:44.982Z,35.80
2019-01-23T06:36:16.427Z,36.50
2019-01-23T06:38:47.643Z,34.80
2019-01-23T06:41:18.930Z,37.53
2019-01-23T06:43:50.173Z,36.47
2019-01-23T06:46:21.370Z,37.50
2019-01-23T06:48:52.711Z,37.77
2019-01-23T06:51:23.932Z,35.17
2019-01-23T06:53:55.790Z,40.17
2019-01-23T06:56:27.033Z,38.43
2019-01-23T06:58:58.365Z,37.63
2019-01-23T07:01:29.549Z,37.83
2019-01-23T07:04:00.814Z,38.70
2019-01-23T07:06:32.000Z,37.13
2019-01-23T07:09:04.753Z,38.40
2019-01-23T07:11:35.929Z,38.30
2019-01-23T07:14:07.181Z,38.63
2019-01-23T07:16:38.424Z,34.73
2019-01-23T07:19:09.635Z,37.40
2019-01-23T07:21:40.851Z,38.60
2019-01-23T07:24:12.122Z,35.90
2019-01-23T07:26:43.441Z,38.43
2019-01-23T07:29:14.677Z,35.30
2019-01-23T07:31:45.866Z,38.23
2019-01-23T07:34:17.064Z,35.93
2019-01-23T07:36:48.331Z,36.33
2019-01-23T07:39:19.651Z,37.37
2019-01-23T07:41:50.937Z,36.80
2019-01-23T07:44:22.157Z,37.87
2019-01-23T07:46:53.566Z,39.63
2019-01-23T07:49:24.848Z,37.93
2019-01-23T07:51:56.330Z,37.40
2019-01-23T07:54:27.550Z,37.47
2019-01-23T07:56:58.770Z,36.03
2019-01-23T07:59:30.013Z,36.97
2019-01-23T08:02:01.247Z,36.27
2019-01-23T08:04:32.627Z,38.60
2019-01-23T08:07:03.830Z,37.80
2019-01-23T08:09:35.177Z,36.33
2019-01-23T08:12:10.672Z,39.97
2019-01-23T08:14:39.426Z,38.53
2019-01-23T08:17:10.544Z,39.80
2019-01-23T08:19:41.792Z,36.10
2019-01-23T08:22:13.095Z,37.97
2019-01-23T08:24:44.503Z,38.17
2019-01-23T08:27:15.849Z,37.13
2019-01-23T08:29:47.198Z,37.50
2019-01-23T08:32:18.479Z,38.80
2019-01-23T08:34:49.795Z,34.10
2019-01-23T08:37:21.116Z,38.33
2019-01-23T08:39:52.453Z,37.37
2019-01-23T08:42:23.761Z,36.43
2019-01-23T08:44:55.133Z,36.87
2019-01-23T08:47:26.520Z,33.97
2019-01-23T08:49:57.801Z,36.23
2019-01-23T08:52:29.126Z,38.37
2019-01-23T08:55:00.442Z,38.00
2019-01-23T08:57:32.010Z,38.80
2019-01-23T09:00:03.368Z,38.17
2019-01-23T09:02:34.539Z,37.20
2019-01-23T09:05:07.029Z,37.43
2019-01-23T09:07:38.480Z,36.50
2019-01-23T09:10:13.482Z,39.80
2019-01-23T09:12:44.902Z,38.43
2019-01-23T09:15:16.617Z,37.30
2019-01-23T09:17:47.918Z,35.93
2019-01-23T09:20:19.306Z,35.53
2019-01-23T09:22:50.678Z,37.40
2019-01-23T09:25:23.448Z,38.23
2019-01-23T09:27:54.733Z,39.30
2019-01-23T09:30:34.943Z,36.50
2019-01-23T09:33:38.710Z,36.83
2019-01-23T09:36:59.883Z,37.57
2019-01-23T09:40:11.910Z,34.83
2019-01-23T09:43:14.769Z,34.57
2019-01-23T09:46:25.897Z,36.07
2019-01-23T09:49:12.943Z,35.93
2019-01-23T09:52:36.444Z,34.17
2019-01-23T09:55:09.608Z,37.07
2019-01-23T09:57:50.969Z,39.40
2019-01-23T10:00:27.643Z,37.53
2019-01-23T10:02:59.050Z,38.07
2019-01-23T10:05:30.279Z,38.77
2019-01-23T10:08:01.530Z,36.77
2019-01-23T10:10:33.247Z,38.47
2019-01-23T10:13:05.491Z,39.47
2019-01-23T10:16:05.559Z,39.53
2019-01-23T10:18:36.754Z,36.40
2019-01-23T10:21:08.031Z,38.20
2019-01-23T10:23:40.396Z,37.60
2019-01-23T10:26:11.602Z,37.63
2019-01-23T10:28:42.901Z,40.30
2019-01-23T10:31:14.274Z,36.23
2019-01-23T10:33:45.600Z,38.33
2019-01-23T10:36:17.005Z,36.73
2019-01-23T10:38:48.217Z,37.23
2019-01-23T10:41:19.577Z,37.07
2019-01-23T10:43:50.927Z,39.47
2019-01-23T10:46:22.273Z,37.07
2019-01-23T10:48:53.465Z,37.53
2019-01-23T10:51:24.926Z,38.30
2019-01-23T10:53:56.310Z,36.80
2019-01-23T10:56:27.543Z,37.17
2019-01-23T10:58:58.897Z,37.90
2019-01-23T11:01:30.063Z,36.23
2019-01-23T11:04:01.315Z,38.20
2019-01-23T11:06:32.513Z,39.37
2019-01-23T11:09:05.425Z,39.13
2019-01-23T11:11:36.879Z,37.27
2019-01-23T11:14:08.272Z,36.77
2019-01-23T11:16:39.586Z,37.77
2019-01-23T11:19:10.775Z,37.30
2019-01-23T11:21:44.476Z,34.30
2019-01-23T11:24:15.745Z,38.10
2019-01-23T11:26:47.093Z,36.83
2019-01-23T11:29:19.363Z,36.53
2019-01-23T11:31:50.818Z,36.93
2019-01-23T11:34:22.091Z,38.27
2019-01-23T11:36:53.388Z,35.57
2019-01-23T11:39:24.701Z,35.30
2019-01-23T11:41:56.083Z,38.63
2019-01-23T11:44:27.409Z,36.40
2019-01-23T11:46:58.627Z,36.53
2019-01-23T11:49:29.846Z,37.03
2019-01-23T11:52:01.136Z,35.40
2019-01-23T11:54:32.516Z,35.37
2019-01-23T11:57:03.692Z,44.23
2019-01-23T11:59:35.088Z,37.50
2019-01-23T12:02:06.473Z,36.87
2019-01-23T12:04:37.647Z,36.53
2019-01-23T12:07:08.924Z,35.87
2019-01-23T12:09:40.111Z,36.97
2019-01-23T12:12:11.449Z,36.23
2019-01-23T12:14:42.658Z,34.87
2019-01-23T12:17:13.929Z,35.57
2019-01-23T12:19:45.154Z,35.80
2019-01-23T12:22:16.478Z,34.17
2019-01-23T12:24:47.765Z,35.17
2019-01-23T12:27:18.940Z,36.17
2019-01-23T12:29:50.201Z,33.97
2019-01-23T12:32:21.466Z,29.27
2019-01-23T12:34:52.689Z,33.83
2019-01-23T12:37:23.991Z,34.27
2019-01-23T12:39:55.398Z,34.23
2019-01-23T12:42:26.697Z,35.17
2019-01-23T12:44:57.882Z,33.70
2019-01-23T12:47:29.152Z,34.93
2019-01-23T12:50:01.113Z,35.80
2019-01-23T12:52:32.748Z,35.47
2019-01-23T12:55:05.020Z,36.20
2019-01-23T12:57:36.289Z,34.83
2019-01-23T13:00:10.685Z,36.63
2019-01-23T13:02:42.346Z,35.47
2019-01-23T13:05:14.868Z,34.77
2019-01-23T13:07:46.355Z,37.80
2019-01-23T13:10:18.768Z,37.27
2019-01-23T13:12:50.144Z,36.67
2019-01-23T13:15:23.284Z,38.17
2019-01-23T13:17:54.931Z,36.20
2019-01-23T13:20:26.449Z,36.27
2019-01-23T13:22:57.684Z,35.93
2019-01-23T13:25:29.721Z,38.07
2019-01-23T13:28:02.309Z,36.70
2019-01-23T13:30:33.610Z,35.50
2019-01-23T13:33:04.773Z,39.53
2019-01-23T13:35:38.175Z,40.90
2019-01-23T13:38:15.519Z,38.00
2019-01-23T13:40:46.805Z,40.40
2019-01-23T13:43:18.158Z,39.83
2019-01-23T13:45:49.437Z,39.47
2019-01-23T13:48:20.748Z,40.10
2019-01-23T13:50:52.107Z,39.67
2019-01-23T13:53:23.410Z,41.17
2019-01-23T13:55:54.800Z,39.87
2019-01-23T13:58:26.333Z,41.23
2019-01-23T14:00:57.850Z,42.70
2019-01-23T14:03:29.191Z,40.13
2019-01-23T14:06:00.574Z,42.23
2019-01-23T14:08:31.855Z,41.70
2019-01-23T14:11:03.148Z,44.07
2019-01-23T14:13:34.454Z,42.17
2019-01-23T14:16:06.119Z,44.90
2019-01-23T14:18:37.502Z,42.37
2019-01-23T14:21:08.911Z,44.47
2019-01-23T14:23:40.418Z,44.70
2019-01-23T14:26:11.825Z,44.80
2019-01-23T14:28:43.119Z,44.77
2019-01-23T14:31:14.486Z,45.40
2019-01-23T14:33:46.124Z,45.27
2019-01-23T14:36:17.525Z,46.30
2019-01-23T14:38:48.983Z,42.57
2019-01-23T14:41:20.218Z,47.20
2019-01-23T14:43:51.466Z,46.97
2019-01-23T14:46:23.506Z,44.73
2019-01-23T14:48:55.093Z,44.80
2019-01-23T14:51:26.488Z,47.07
2019-01-23T14:53:57.753Z,47.13
2019-01-23T14:56:28.993Z,45.00
2019-01-23T14:59:01.122Z,46.87
2019-01-23T15:01:32.579Z,45.40
2019-01-23T15:04:03.789Z,44.37
2019-01-23T15:06:35.246Z,44.97
2019-01-23T15:09:08.291Z,47.70
2019-01-23T15:11:39.604Z,44.57
2019-01-23T15:14:10.891Z,47.40
2019-01-23T15:16:42.267Z,45.50
2019-01-23T15:19:13.656Z,45.10
2019-01-23T15:21:45.046Z,45.87
2019-01-23T15:24:16.311Z,47.03
2019-01-23T15:26:47.686Z,46.20
2019-01-23T15:29:18.971Z,45.47
2019-01-23T15:31:50.246Z,44.37
2019-01-23T15:34:21.504Z,45.67
2019-01-23T15:36:52.886Z,48.20
2019-01-23T15:39:24.185Z,46.50
2019-01-23T15:41:55.528Z,48.17
2019-01-23T15:44:27.082Z,46.27
2019-01-23T15:46:58.422Z,48.77
2019-01-23T15:49:29.641Z,47.70
2019-01-23T15:52:00.929Z,50.37
2019-01-23T15:54:32.379Z,44.53
2019-01-23T15:57:03.799Z,49.93
2019-01-23T15:59:35.056Z,50.40
2019-01-23T16:02:06.467Z,46.80
2019-01-23T16:04:37.673Z,51.37
2019-01-23T16:07:09.009Z,51.37
2019-01-23T16:09:41.291Z,52.80
2019-01-23T16:12:12.588Z,52.90
2019-01-23T16:14:44.379Z,50.43
2019-01-23T16:17:15.820Z,52.93
2019-01-23T16:19:47.370Z,51.50
2019-01-23T16:22:18.683Z,57.73
2019-01-23T16:24:49.891Z,52.93
2019-01-23T16:27:21.658Z,53.70
2019-01-23T16:29:52.860Z,51.67
2019-01-23T16:32:31.283Z,51.47
2019-01-23T16:34:57.774Z,50.03
2019-01-23T16:37:28.978Z,50.93
2019-01-23T16:40:00.513Z,51.70
2019-01-23T16:42:32.231Z,52.07
2019-01-23T16:45:03.824Z,53.77
2019-01-23T16:47:35.290Z,52.27
2019-01-23T16:50:10.530Z,54.40
2019-01-23T16:52:43.122Z,47.50
2019-01-23T16:55:15.413Z,52.47
2019-01-23T16:57:48.847Z,54.83
2019-01-23T17:00:22.770Z,55.43
2019-01-23T17:02:54.078Z,53.80
2019-01-23T17:05:27.647Z,49.47
2019-01-23T17:08:00.448Z,52.27
2019-01-23T17:10:35.252Z,52.33
2019-01-23T17:13:06.541Z,48.87
2019-01-23T17:15:38.735Z,51.53
2019-01-23T17:18:09.930Z,51.53
2019-01-23T17:20:44.236Z,51.80
2019-01-23T17:23:15.845Z,50.13
2019-01-23T17:25:48.036Z,47.77
2019-01-23T17:28:19.446Z,53.30
2019-01-23T17:30:51.774Z,55.10
2019-01-23T17:33:23.865Z,51.07
2019-01-23T17:35:55.716Z,49.43
2019-01-23T17:38:30.722Z,52.27
2019-01-23T17:41:02.429Z,49.53
2019-01-23T17:43:34.926Z,50.53
2019-01-23T17:46:06.619Z,47.50
2019-01-23T17:48:38.005Z,51.97
2019-01-23T17:51:09.297Z,53.67
2019-01-23T17:53:40.587Z,50.67
2019-01-23T17:56:11.845Z,51.23
2019-01-23T17:58:43.133Z,49.93
2019-01-23T18:01:14.558Z,49.73
2019-01-23T18:03:45.750Z,47.90
2019-01-23T18:06:17.065Z,54.77
2019-01-23T18:08:48.450Z,52.67
2019-01-23T18:11:19.800Z,49.83
2019-01-23T18:13:51.271Z,47.23
2019-01-23T18:16:22.546Z,48.77
2019-01-23T18:18:53.793Z,49.50
2019-01-23T18:21:25.105Z,49.23
2019-01-23T18:23:56.545Z,51.00
2019-01-23T18:26:28.128Z,48.63
2019-01-23T18:29:00.762Z,39.97
2019-01-23T18:31:52.792Z,37.73
2019-01-23T18:34:57.924Z,41.73
2019-01-23T18:38:09.034Z,41.83
2019-01-23T18:41:18.784Z,38.73
2019-01-23T18:44:24.333Z,32.83
2019-01-23T18:47:18.426Z,35.80
2019-01-23T18:50:14.269Z,37.40
2019-01-23T18:52:45.691Z,41.53
2019-01-23T18:55:18.538Z,37.17
2019-01-23T18:57:50.027Z,34.70
2019-01-23T19:00:21.891Z,35.73
2019-01-23T19:02:53.385Z,31.27
2019-01-23T19:05:25.779Z,31.00
2019-01-23T19:07:58.623Z,35.60
2019-01-23T19:10:30.441Z,34.03
2019-01-23T19:13:06.867Z,31.00
2019-01-23T19:15:59.387Z,30.20
2019-01-23T19:18:30.764Z,29.93
2019-01-23T19:21:08.279Z,30.07
2019-01-23T19:23:41.853Z,27.77
2019-01-23T19:26:46.302Z,27.67
2019-01-23T19:29:25.318Z,26.33
2019-01-23T19:31:57.931Z,24.83
2019-01-23T19:34:29.431Z,27.10
2019-01-23T19:37:00.824Z,25.93
2019-01-23T19:39:36.423Z,25.00
2019-01-23T19:42:13.373Z,25.30
2019-01-23T19:44:46.648Z,23.80
2019-01-23T19:47:20.222Z,24.47
2019-01-23T19:49:52.107Z,26.03
2019-01-23T19:52:23.411Z,27.37
2019-01-23T19:55:30.494Z,27.30
2019-01-23T19:58:06.281Z,23.27
2019-01-23T20:01:23.350Z,25.17
2019-01-23T20:04:02.574Z,19.13
2019-01-23T20:06:41.754Z,25.80
2019-01-23T20:09:22.047Z,23.23
2019-01-23T20:12:01.230Z,24.87
2019-01-23T20:14:38.323Z,23.07
2019-01-23T20:17:10.679Z,23.50
2019-01-23T20:19:49.805Z,25.43
2019-01-23T20:22:27.889Z,22.17
2019-01-23T20:25:02.062Z,21.37
2019-01-23T20:27:36.672Z,21.53
2019-01-23T20:30:18.047Z,17.13
2019-01-23T20:33:08.898Z,21.47
2019-01-23T20:35:40.547Z,21.60
2019-01-23T20:38:23.652Z,23.53
2019-01-23T20:41:02.400Z,21.67
2019-01-23T20:43:47.024Z,22.83
2019-01-23T20:47:28.255Z,23.67
2019-01-23T20:49:17.396Z,23.10
2019-01-23T20:51:55.380Z,24.83
2019-01-23T20:54:30.100Z,23.30
2019-01-23T20:57:03.895Z,20.33
2019-01-23T20:59:36.902Z,23.57
2019-01-23T21:02:33.954Z,21.63
2019-01-23T21:05:12.563Z,21.27
2019-01-23T21:07:44.280Z,24.63
2019-01-23T21:10:16.601Z,18.13
2019-01-23T21:12:48.728Z,22.17
2019-01-23T21:15:31.859Z,20.37
2019-01-23T21:18:04.100Z,20.93
2019-01-23T21:20:37.570Z,19.87
2019-01-23T21:23:10.222Z,19.67
2019-01-23T21:25:41.389Z,20.63
2019-01-23T21:28:12.788Z,21.30
2019-01-23T21:30:44.035Z,21.53
2019-01-23T21:33:15.498Z,19.37
2019-01-23T21:35:46.939Z,22.73
2019-01-23T21:38:18.149Z,23.97
2019-01-23T21:40:49.410Z,20.57
2019-01-23T21:43:21.735Z,22.33
2019-01-23T21:45:53.171Z,22.43
2019-01-23T21:48:24.473Z,21.07
2019-01-23T21:50:55.881Z,21.87
2019-01-23T21:53:27.158Z,21.37
2019-01-23T21:55:58.475Z,22.97
2019-01-23T21:58:29.679Z,20.90
2019-01-23T22:01:01.739Z,21.67
2019-01-23T22:03:33.320Z,21.17
2019-01-23T22:06:04.866Z,21.87
2019-01-23T22:08:36.053Z,22.30
2019-01-23T22:11:07.419Z,24.03
2019-01-23T22:13:41.635Z,21.03
2019-01-23T22:16:12.918Z,21.17
2019-01-23T22:18:44.346Z,21.13
2019-01-23T22:21:15.556Z,20.53
2019-01-23T22:23:47.184Z,21.93
2019-01-23T22:26:18.681Z,21.33
2019-01-23T22:28:50.060Z,22.90
2019-01-23T22:31:21.316Z,22.13
2019-01-23T22:33:56.384Z,20.93
2019-01-23T22:36:25.669Z,21.07
2019-01-23T22:38:56.904Z,20.37
2019-01-23T22:41:28.318Z,20.23
2019-01-23T22:43:59.519Z,20.13
2019-01-23T22:46:30.782Z,20.07
2019-01-23T22:49:02.084Z,20.00
2019-01-23T22:51:33.338Z,21.63
2019-01-23T22:54:04.610Z,19.90
2019-01-23T22:56:35.823Z,20.43
2019-01-23T22:59:07.191Z,19.47
2019-01-23T23:01:38.345Z,20.20
2019-01-23T23:04:09.603Z,19.30
2019-01-23T23:06:40.923Z,21.33
2019-01-23T23:09:12.259Z,18.97
2019-01-23T23:11:43.473Z,19.57
2019-01-23T23:14:14.831Z,21.73
2019-01-23T23:16:46.156Z,19.53
2019-01-23T23:19:17.444Z,22.10
2019-01-23T23:21:48.658Z,22.03
2019-01-23T23:24:20.010Z,21.27
2019-01-23T23:26:51.541Z,21.43
2019-01-23T23:29:22.785Z,23.03
2019-01-23T23:31:54.227Z,20.67
2019-01-23T23:34:25.488Z,21.07
2019-01-23T23:36:56.680Z,21.97
2019-01-23T23:39:29.701Z,22.20
2019-01-23T23:42:02.430Z,21.67
2019-01-23T23:44:33.677Z,21.70
2019-01-23T23:47:08.137Z,21.97
2019-01-23T23:49:39.991Z,21.90
2019-01-23T23:52:11.376Z,20.63
2019-01-23T23:54:42.693Z,21.00
2019-01-23T23:57:16.256Z,21.80
2019-01-23T23:59:47.700Z,21.97
